South Tamworth, New Hampshire
Current Conditions -  °F | °C
As of 8:55 AM on Friday 24 Oct 2014 (Local Time) from KLCI Reporting Station
Overcast Overcast  
Wind Chill: 44°   Ceiling: 2500
Heat Index: 46°   Visibility: 10mi
Dew Point: 43°   Wind: 5mph
Humidity: 87%   Direction: 290°WNW
Pressure: 29.71"   Gusts: NA
Location:  43.82°N, 71.3°W
Report Text: KLCI 241255Z AUTO 29004KT 10SM BKN025 OVC033 08/06 A2971 RMK AO1
Loading
Personal Weather Stations






























Interactive Weather Map
Tropical Storm Tracking
New forecast layout! Learn more

10-Day Weather Forecast

Advertisements
Track Severe Weather on mobile